Time;durP1;ratioP1;P1;durP2;ratioP2;P2;SDS_P1;SDS_P2;PMS_P1;PMS_P2;Temp;Humidity;BMP_temperature;BMP_pressure;BME280_temperature;BME280_humidity;BME280_pressure;Samples;Min_cycle;Max_cycle;Signal;HPM_P1;HPM_P2
2024/04/24 00:02:10;;;;;;;19.08;12.40;;;7.00;77.00;;;;;;5523499;25;20627;-72
2024/04/24 00:04:35;;;;;;;18.65;13.05;;;7.10;77.90;;;;;;5523143;25;20805;-72
2024/04/24 00:07:01;;;;;;;22.48;11.52;;;7.10;81.50;;;;;;5522961;25;20438;-71
2024/04/24 00:09:26;;;;;;;15.73;8.88;;;6.90;73.80;;;;;;5523359;25;20313;-70
2024/04/24 00:11:52;;;;;;;11.13;5.18;;;6.80;64.00;;;;;;5525502;25;20315;-70
2024/04/24 00:14:17;;;;;;;8.33;4.00;;;6.80;61.10;;;;;;5524952;25;20424;-72
2024/04/24 00:16:43;;;;;;;8.50;4.10;;;6.70;58.30;;;;;;5524463;26;20364;-70
2024/04/24 00:19:08;;;;;;;5.68;2.80;;;6.70;55.40;;;;;;5525327;25;20336;-72
2024/04/24 00:21:34;;;;;;;9.25;3.55;;;6.50;55.30;;;;;;5527057;25;20667;-71
2024/04/24 00:23:59;;;;;;;8.00;3.00;;;6.70;55.80;;;;;;5499117;26;20335;-71
2024/04/24 00:26:25;;;;;;;6.97;2.40;;;6.70;54.00;;;;;;5530471;25;20706;-71
2024/04/24 00:28:50;;;;;;;8.40;2.70;;;8.00;53.70;;;;;;5498676;26;20500;-70
2024/04/24 00:31:16;;;;;;;11.70;2.80;;;6.80;52.50;;;;;;5531155;25;20347;-71
2024/04/24 00:33:41;;;;;;;7.38;2.60;;;7.00;51.90;;;;;;5531660;25;20319;-72
2024/04/24 00:36:07;;;;;;;8.17;2.10;;;6.90;50.20;;;;;;5527240;25;20319;-70
2024/04/24 00:38:32;;;;;;;8.90;2.00;;;6.70;49.50;;;;;;5526593;25;20315;-71
2024/04/24 00:40:58;;;;;;;8.20;2.10;;;6.60;47.50;;;;;;5527722;25;20319;-70
2024/04/24 00:43:24;;;;;;;8.00;2.40;;;6.30;50.50;;;;;;5492393;26;20645;-70
2024/04/24 00:45:49;;;;;;;6.30;2.00;;;6.50;51.30;;;;;;5525343;25;20845;-71
2024/04/24 00:48:15;;;;;;;9.40;2.10;;;6.30;51.90;;;;;;5525306;25;21028;-72
2024/04/24 00:50:41;;;;;;;7.73;2.80;;;6.30;53.20;;;;;;5525716;25;20319;-70
2024/04/24 00:53:07;;;;;;;7.53;2.90;;;6.40;59.20;;;;;;5524884;25;20425;-71
2024/04/24 00:55:33;;;;;;;9.47;3.77;;;6.50;61.20;;;;;;5524681;25;20316;-71
2024/04/24 00:58:00;;;;;;;11.48;4.68;;;6.40;57.80;;;;;;5525155;26;20308;-70
2024/04/24 01:00:25;;;;;;;9.82;4.80;;;6.40;59.70;;;;;;5524619;25;20327;-71
2024/04/24 01:02:51;;;;;;;10.77;5.30;;;6.50;66.30;;;;;;5525852;25;20308;-71
2024/04/24 01:05:16;;;;;;;15.07;6.90;;;6.40;66.40;;;;;;5525169;25;20312;-72
2024/04/24 01:07:42;;;;;;;19.17;7.20;;;6.60;74.00;;;;;;5525946;26;20315;-70
2024/04/24 01:10:16;;;;;;;13.90;7.65;;;6.40;72.20;;;;;;5502182;26;20311;-71
2024/04/24 01:12:41;;;;;;;15.40;7.78;;;6.40;75.80;;;;;;5532891;25;20331;-69
2024/04/24 01:15:08;;;;;;;14.52;7.43;;;6.40;75.50;;;;;;5524939;25;20368;-72
2024/04/24 01:17:37;;;;;;;15.43;7.50;;;6.40;75.70;;;;;;5525388;26;20316;-71
2024/04/24 01:20:09;;;;;;;15.52;7.10;;;7.50;77.40;;;;;;5524524;25;20320;-71
2024/04/24 01:22:44;;;;;;;14.02;6.50;;;6.40;78.20;;;;;;5523292;25;20370;-71
2024/04/24 01:25:33;;;;;;;15.60;6.95;;;6.20;79.20;;;;;;5491477;26;20746;-71
2024/04/24 01:27:59;;;;;;;13.45;6.22;;;6.30;75.80;;;;;;5524009;25;20736;-71
2024/04/24 01:30:25;;;;;;;13.90;6.00;;;6.30;74.90;;;;;;5523892;26;20323;-71
2024/04/24 01:32:50;;;;;;;14.45;6.15;;;6.30;75.60;;;;;;5523985;25;20319;-71
2024/04/24 01:35:16;;;;;;;18.42;5.55;;;6.30;77.00;;;;;;5523852;25;20833;-71
2024/04/24 01:37:41;;;;;;;11.73;5.20;;;6.30;76.20;;;;;;5523818;25;20323;-71
2024/04/24 01:40:07;;;;;;;13.27;4.67;;;6.30;71.80;;;;;;5523613;25;20320;-71
2024/04/24 01:42:33;;;;;;;12.23;4.93;;;6.20;71.80;;;;;;5523605;25;20833;-71
2024/04/24 01:44:58;;;;;;;13.48;5.10;;;6.10;74.60;;;;;;5523353;25;20409;-70
2024/04/24 01:47:24;;;;;;;11.80;4.05;;;6.20;66.20;;;;;;5523841;25;20409;-71
2024/04/24 01:49:49;;;;;;;7.53;4.38;;;6.20;66.40;;;;;;5524280;25;20328;-71
2024/04/24 01:52:15;;;;;;;11.95;5.05;;;6.50;71.70;;;;;;5523568;25;20667;-71
2024/04/24 01:54:40;;;;;;;7.65;4.68;;;6.30;67.60;;;;;;5523772;25;20425;-71
2024/04/24 01:57:06;;;;;;;11.55;4.55;;;6.40;65.70;;;;;;5523305;25;20315;-71
2024/04/24 01:59:31;;;;;;;9.55;4.10;;;6.20;69.00;;;;;;5523839;25;20822;-72
2024/04/24 02:01:57;;;;;;;10.60;4.35;;;6.40;63.00;;;;;;5523687;25;20355;-71
2024/04/24 02:04:22;;;;;;;9.68;4.05;;;6.30;61.70;;;;;;5523817;25;20327;-72
2024/04/24 02:06:48;;;;;;;10.88;4.32;;;6.70;67.90;;;;;;5523521;25;20319;-72
2024/04/24 02:09:13;;;;;;;9.27;3.70;;;6.30;64.60;;;;;;5523874;25;20735;-70
2024/04/24 02:11:39;;;;;;;10.55;4.70;;;6.30;65.00;;;;;;5523758;25;20352;-71
2024/04/24 02:14:04;;;;;;;14.77;4.90;;;6.30;70.20;;;;;;5523706;25;20659;-71
2024/04/24 02:16:30;;;;;;;13.27;4.70;;;6.10;67.00;;;;;;5523378;25;20343;-72
2024/04/24 02:18:55;;;;;;;17.98;4.65;;;6.10;68.20;;;;;;5523705;25;20360;-72
2024/04/24 02:21:21;;;;;;;16.52;5.25;;;6.20;71.20;;;;;;5523420;25;20352;-69
2024/04/24 02:23:46;;;;;;;14.07;5.00;;;6.20;68.50;;;;;;5490995;26;20315;-71
2024/04/24 02:26:12;;;;;;;11.50;4.35;;;6.10;70.40;;;;;;5523097;25;20412;-71
2024/04/24 02:28:37;;;;;;;11.37;4.70;;;6.10;74.40;;;;;;5523444;25;20315;-71
2024/04/24 02:31:03;;;;;;;13.77;5.17;;;6.10;75.90;;;;;;5523125;26;20327;-71
2024/04/24 02:33:29;;;;;;;12.70;5.53;;;6.20;70.00;;;;;;5489419;26;20324;-69
2024/04/24 02:35:54;;;;;;;14.70;4.80;;;6.20;71.10;;;;;;5523799;26;20316;-72
2024/04/24 02:38:20;;;;;;;16.67;5.47;;;6.40;76.30;;;;;;5525387;25;20774;-72
2024/04/24 02:40:45;;;;;;;12.17;5.00;;;6.10;71.20;;;;;;5524446;26;20328;-72
2024/04/24 02:43:11;;;;;;;18.37;5.37;;;6.10;70.10;;;;;;5524600;25;20360;-71
2024/04/24 02:45:36;;;;;;;15.60;5.20;;;6.40;77.40;;;;;;5523943;25;20351;-70
2024/04/24 02:48:02;;;;;;;38.70;5.70;;;6.00;71.20;;;;;;5523340;26;20809;-72
2024/04/24 02:50:28;;;;;;;10.93;4.68;;;6.00;72.20;;;;;;5522842;25;20383;-70
2024/04/24 02:52:53;;;;;;;12.50;3.70;;;6.00;74.30;;;;;;5522669;25;20865;-71
2024/04/24 02:55:19;;;;;;;14.73;3.85;;;6.00;71.40;;;;;;5522577;26;20717;-71
2024/04/24 02:57:45;;;;;;;10.07;3.47;;;6.00;69.60;;;;;;5490682;26;20324;-71
2024/04/24 03:00:11;;;;;;;8.80;3.20;;;6.00;68.80;;;;;;5522900;26;20327;-72
2024/04/24 03:02:36;;;;;;;9.57;3.22;;;6.10;71.80;;;;;;5522456;25;20846;-72
2024/04/24 03:05:02;;;;;;;10.95;3.70;;;6.10;67.10;;;;;;5522677;25;20830;-71
2024/04/24 03:07:28;;;;;;;11.88;3.22;;;6.10;67.20;;;;;;5522839;25;20375;-72
2024/04/24 03:09:54;;;;;;;11.67;3.30;;;6.20;66.10;;;;;;5522748;26;20319;-71
2024/04/24 03:12:19;;;;;;;11.95;3.97;;;6.20;66.40;;;;;;5494577;25;20335;-71
2024/04/24 03:14:45;;;;;;;10.50;3.30;;;6.20;66.60;;;;;;5537476;25;20360;-73
2024/04/24 03:17:11;;;;;;;17.98;4.78;;;6.20;68.20;;;;;;5525241;25;20367;-72
2024/04/24 03:19:37;;;;;;;18.77;3.97;;;6.30;66.00;;;;;;5492458;26;20345;-71
2024/04/24 03:22:03;;;;;;;10.50;3.75;;;6.50;68.60;;;;;;5525831;25;20356;-72
2024/04/24 03:24:28;;;;;;;9.43;3.92;;;5.80;70.30;;;;;;5526093;25;20319;-72
2024/04/24 03:26:54;;;;;;;13.40;3.60;;;6.00;70.00;;;;;;5524337;25;20866;-71
2024/04/24 03:29:19;;;;;;;13.13;3.60;;;6.10;67.20;;;;;;5522960;25;20790;-71
2024/04/24 03:31:45;;;;;;;7.73;3.47;;;6.20;72.70;;;;;;5522301;25;20420;-72
2024/04/24 03:34:10;;;;;;;15.10;5.03;;;6.00;69.40;;;;;;5522142;25;20830;-71
2024/04/24 03:36:36;;;;;;;10.73;4.70;;;6.20;70.60;;;;;;5522115;25;20350;-72
2024/04/24 03:39:03;;;;;;;15.90;4.50;;;6.20;76.60;;;;;;5522685;26;20319;-71
2024/04/24 03:41:28;;;;;;;12.20;3.50;;;6.20;74.50;;;;;;5522050;25;20323;-70
2024/04/24 03:43:54;;;;;;;6.05;2.80;;;6.00;69.00;;;;;;5521890;25;20364;-71
2024/04/24 03:46:19;;;;;;;12.63;3.90;;;6.00;68.60;;;;;;5524908;26;20384;-72
2024/04/24 03:48:45;;;;;;;7.88;3.50;;;6.10;72.60;;;;;;5525552;26;20324;-71
2024/04/24 03:51:10;;;;;;;13.45;3.70;;;6.10;68.30;;;;;;5525188;25;20363;-71
2024/04/24 03:53:36;;;;;;;12.40;3.88;;;6.10;67.30;;;;;;5526379;25;20427;-70
2024/04/24 03:56:01;;;;;;;10.60;3.63;;;6.10;69.40;;;;;;5526746;25;20327;-71
2024/04/24 03:58:27;;;;;;;14.93;3.30;;;6.10;67.30;;;;;;5526328;25;20372;-70
2024/04/24 04:00:53;;;;;;;13.30;3.50;;;6.10;65.90;;;;;;5525876;25;20420;-71
2024/04/24 04:03:18;;;;;;;16.57;3.90;;;6.00;65.70;;;;;;5492838;26;20417;-71
2024/04/24 04:05:44;;;;;;;8.80;3.27;;;6.10;69.00;;;;;;5524813;25;20331;-71
2024/04/24 04:08:10;;;;;;;7.18;2.80;;;6.10;67.40;;;;;;5525209;25;20846;-71
2024/04/24 04:10:35;;;;;;;16.65;3.45;;;6.10;66.40;;;;;;5524736;25;20352;-72
2024/04/24 04:13:04;;;;;;;16.08;4.25;;;6.60;68.90;;;;;;5525328;25;20328;-70
2024/04/24 04:15:29;;;;;;;10.38;3.00;;;6.20;63.90;;;;;;5525518;26;20657;-70
2024/04/24 04:17:55;;;;;;;19.33;4.45;;;6.20;63.30;;;;;;5525647;26;20329;-71
2024/04/24 04:20:20;;;;;;;11.77;3.30;;;6.30;69.20;;;;;;5525391;25;20850;-70
2024/04/24 04:22:46;;;;;;;13.30;3.50;;;6.10;65.70;;;;;;5525034;25;20324;-71
2024/04/24 04:25:11;;;;;;;15.82;3.92;;;6.20;63.50;;;;;;5492663;26;20315;-71
2024/04/24 04:27:38;;;;;;;8.13;2.88;;;6.10;65.90;;;;;;5492414;26;20364;-71
2024/04/24 04:30:04;;;;;;;8.45;2.50;;;6.10;63.90;;;;;;5524782;26;20360;-71
2024/04/24 04:32:30;;;;;;;9.90;3.70;;;6.20;66.00;;;;;;5524697;25;20323;-71
2024/04/24 04:34:55;;;;;;;8.98;3.00;;;6.10;64.60;;;;;;5524631;26;20357;-70
2024/04/24 04:37:21;;;;;;;6.53;3.13;;;6.00;65.00;;;;;;5525313;25;20343;-72
2024/04/24 04:39:46;;;;;;;12.50;3.00;;;6.20;69.80;;;;;;5524924;25;20346;-71
2024/04/24 04:42:12;;;;;;;11.02;3.28;;;6.10;64.70;;;;;;5525174;25;20354;-70
2024/04/24 04:44:37;;;;;;;11.40;3.20;;;6.20;63.20;;;;;;5525015;25;20674;-72
2024/04/24 04:47:03;;;;;;;9.82;3.17;;;6.30;64.50;;;;;;5524467;26;20344;-71
2024/04/24 04:49:28;;;;;;;8.70;3.00;;;6.30;61.60;;;;;;5524711;26;20319;-71
2024/04/24 04:51:54;;;;;;;10.63;3.17;;;6.20;63.10;;;;;;5524826;25;20332;-71
2024/04/24 04:54:20;;;;;;;9.23;3.00;;;6.20;67.80;;;;;;5525784;25;20894;-70
2024/04/24 04:56:47;;;;;;;12.10;3.33;;;6.10;63.00;;;;;;5522437;25;20381;-71
2024/04/24 04:59:12;;;;;;;12.50;3.40;;;6.10;69.00;;;;;;5527102;25;20323;-72
2024/04/24 05:01:38;;;;;;;11.00;3.30;;;6.00;63.90;;;;;;5526906;25;20323;-72
2024/04/24 05:04:03;;;;;;;11.80;3.10;;;6.00;63.90;;;;;;5528191;25;20343;-72
2024/04/24 05:06:29;;;;;;;7.68;3.50;;;6.00;69.80;;;;;;5530422;25;20316;-70
2024/04/24 05:08:55;;;;;;;8.43;3.30;;;6.10;63.30;;;;;;5533407;25;20723;-73
2024/04/24 05:11:20;;;;;;;7.25;3.30;;;6.20;62.00;;;;;;5531295;25;20651;-70
2024/04/24 05:13:46;;;;;;;5.90;3.45;;;6.50;66.20;;;;;;5531553;25;20324;-71
2024/04/24 05:16:12;;;;;;;7.45;3.60;;;6.30;60.40;;;;;;5499272;26;20778;-72
2024/04/24 05:18:38;;;;;;;8.30;3.47;;;6.20;60.80;;;;;;5534827;25;20364;-71
2024/04/24 05:21:05;;;;;;;7.15;3.00;;;6.20;61.40;;;;;;5497405;26;20363;-71
2024/04/24 05:23:31;;;;;;;7.40;3.20;;;6.20;65.90;;;;;;5531418;25;20878;-71
2024/04/24 05:25:57;;;;;;;10.23;3.97;;;6.30;62.40;;;;;;5531324;25;20320;-71
2024/04/24 05:31:08;;;;;;;12.57;4.43;;;6.40;61.80;;;;;;5529189;25;20420;-70
2024/04/24 05:33:33;;;;;;;13.83;4.20;;;6.50;60.00;;;;;;5529671;25;20725;-72
2024/04/24 05:36:01;;;;;;;7.10;3.67;;;6.60;63.40;;;;;;5530409;25;20695;-72
2024/04/24 05:38:27;;;;;;;9.40;3.80;;;6.60;58.60;;;;;;5497801;26;20770;-74
2024/04/24 05:40:53;;;;;;;7.70;3.50;;;6.80;57.60;;;;;;5529605;25;20346;-70
2024/04/24 05:43:18;;;;;;;11.37;4.60;;;6.90;59.60;;;;;;5526889;25;20335;-70
2024/04/24 05:45:44;;;;;;;8.93;3.67;;;6.80;55.60;;;;;;5524832;25;20360;-72
2024/04/24 05:48:10;;;;;;;9.27;3.70;;;6.70;56.40;;;;;;5524545;26;20428;-71
2024/04/24 05:50:35;;;;;;;6.55;3.45;;;6.80;60.20;;;;;;5525041;25;20335;-71
2024/04/24 05:53:01;;;;;;;8.80;3.80;;;6.70;57.00;;;;;;5524581;25;20335;-71
2024/04/24 05:55:26;;;;;;;11.23;4.30;;;6.80;54.20;;;;;;5523317;25;20331;-72
2024/04/24 05:57:52;;;;;;;8.98;3.63;;;7.90;55.70;;;;;;5524251;25;20357;-71
2024/04/24 06:00:18;;;;;;;9.00;3.60;;;7.00;53.10;;;;;;5525127;25;20715;-72
2024/04/24 06:02:43;;;;;;;10.27;3.70;;;7.20;51.10;;;;;;5525774;25;20331;-72
2024/04/24 06:05:09;;;;;;;9.27;3.60;;;7.00;53.60;;;;;;5526729;25;20372;-71
2024/04/24 06:07:34;;;;;;;9.93;3.10;;;7.20;50.70;;;;;;5527503;25;20328;-70
2024/04/24 06:10:00;;;;;;;12.35;4.50;;;7.10;50.20;;;;;;5526267;25;20339;-72
2024/04/24 06:12:25;;;;;;;10.10;3.50;;;7.20;51.80;;;;;;5524533;25;20736;-71
2024/04/24 06:14:51;;;;;;;9.00;3.35;;;7.20;48.50;;;;;;5524394;26;20332;-70
2024/04/24 06:17:16;;;;;;;8.85;3.20;;;7.20;47.30;;;;;;5523971;25;20330;-72
2024/04/24 06:19:42;;;;;;;9.60;3.00;;;7.10;51.50;;;;;;5523803;25;20834;-71
2024/04/24 06:22:08;;;;;;;11.38;3.70;;;6.90;51.00;;;;;;5523983;25;20363;-71
2024/04/24 06:24:33;;;;;;;11.83;3.53;;;6.90;50.00;;;;;;5524153;25;20324;-70
2024/04/24 06:26:59;;;;;;;12.57;3.93;;;6.80;50.00;;;;;;5522808;26;20335;-71
2024/04/24 06:29:25;;;;;;;7.80;2.70;;;6.70;49.20;;;;;;5522722;25;20328;-71
2024/04/24 06:31:50;;;;;;;11.80;3.10;;;7.10;47.40;;;;;;5527194;25;20324;-71
2024/04/24 06:34:16;;;;;;;5.73;2.47;;;7.20;45.60;;;;;;5534042;25;20364;-72
2024/04/24 06:36:42;;;;;;;7.95;2.50;;;7.20;50.00;;;;;;5534209;26;20391;-71
2024/04/24 06:39:07;;;;;;;7.05;2.90;;;7.30;45.40;;;;;;5531083;25;20324;-72
2024/04/24 06:41:33;;;;;;;7.90;2.95;;;7.50;45.20;;;;;;5528789;26;20865;-71
2024/04/24 06:43:58;;;;;;;8.00;3.88;;;7.50;42.60;;;;;;5530141;25;20370;-71
2024/04/24 06:46:24;;;;;;;15.27;2.65;;;7.40;45.60;;;;;;5528545;25;20363;-73
2024/04/24 06:48:49;;;;;;;7.68;2.42;;;7.40;45.20;;;;;;5524922;25;20382;-72
2024/04/24 06:51:15;;;;;;;12.32;3.10;;;7.40;50.30;;;;;;5525821;25;20416;-70
2024/04/24 06:53:41;;;;;;;12.80;3.17;;;7.50;45.10;;;;;;5525364;25;20340;-74
2024/04/24 06:56:06;;;;;;;11.75;2.85;;;7.60;45.00;;;;;;5524327;26;20331;-72
2024/04/24 06:58:36;;;;;;;5.60;2.35;;;7.70;44.30;;;;;;5524535;25;20320;-72
2024/04/24 07:01:02;;;;;;;8.70;2.13;;;7.80;43.20;;;;;;5526191;25;20356;-71
2024/04/24 07:03:31;;;;;;;13.13;3.20;;;7.50;45.90;;;;;;5506019;26;20333;-71
2024/04/24 07:05:57;;;;;;;10.80;2.97;;;7.30;46.90;;;;;;5518562;25;20345;-70
2024/04/24 07:08:23;;;;;;;12.70;2.90;;;7.30;44.60;;;;;;5521886;25;20407;-71
2024/04/24 07:10:49;;;;;;;6.20;2.75;;;7.40;44.50;;;;;;5520399;25;20366;-71
2024/04/24 07:13:15;;;;;;;6.32;2.58;;;7.40;46.80;;;;;;5520157;25;20324;-71
2024/04/24 07:15:41;;;;;;;9.57;3.03;;;7.60;46.70;;;;;;5519982;25;20360;-71
2024/04/24 07:18:06;;;;;;;7.45;2.83;;;7.50;45.70;;;;;;5519323;25;20320;-71
2024/04/24 07:20:32;;;;;;;10.52;3.03;;;7.70;42.80;;;;;;5522291;25;20662;-70
2024/04/24 07:22:58;;;;;;;10.33;2.97;;;8.10;40.70;;;;;;5524159;25;20932;-70
2024/04/24 07:25:24;;;;;;;9.30;2.90;;;8.50;44.50;;;;;;5522600;25;20446;-71
2024/04/24 07:27:49;;;;;;;7.78;3.00;;;8.50;38.10;;;;;;5523088;25;20327;-71
2024/04/24 07:30:16;;;;;;;10.00;3.00;;;;;;;;;;5523963;25;20813;-71
2024/04/24 07:32:41;;;;;;;10.98;3.05;;;8.50;36.20;;;;;;5524876;25;20366;-70
2024/04/24 07:35:07;;;;;;;8.50;2.80;;;8.40;39.30;;;;;;5524712;25;20335;-71
2024/04/24 07:37:33;;;;;;;10.47;2.90;;;;;;;;;;5523150;25;20401;-70
2024/04/24 07:39:59;;;;;;;8.63;3.20;;;8.60;37.10;;;;;;5525907;25;20836;-70
2024/04/24 07:42:25;;;;;;;8.23;2.30;;;8.70;37.50;;;;;;5525884;25;20339;-71
2024/04/24 07:44:50;;;;;;;9.60;3.30;;;8.70;38.10;;;;;;5527845;25;20319;-71
2024/04/24 07:47:16;;;;;;;13.87;3.30;;;8.70;36.90;;;;;;5525854;25;20328;-70
2024/04/24 07:49:41;;;;;;;14.40;3.30;;;8.80;35.00;;;;;;5525321;25;20327;-71
2024/04/24 07:52:07;;;;;;;12.93;2.20;;;8.80;39.40;;;;;;5525443;25;20371;-70
2024/04/24 07:54:34;;;;;;;10.70;2.53;;;8.60;35.50;;;;;;5525848;25;20331;-71
2024/04/24 07:57:00;;;;;;;12.18;2.92;;;8.50;35.40;;;;;;5525198;25;20479;-70
2024/04/24 07:59:26;;;;;;;11.88;2.78;;;8.50;35.60;;;;;;5525120;25;20817;-70
2024/04/24 08:01:51;;;;;;;10.53;3.00;;;8.80;34.90;;;;;;5526095;25;20482;-71
2024/04/24 08:04:17;;;;;;;9.23;2.70;;;8.80;39.80;;;;;;5527201;25;20331;-71
2024/04/24 08:06:42;;;;;;;12.00;2.40;;;8.80;34.80;;;;;;5525056;25;20641;-70
2024/04/24 08:09:10;;;;;;;18.47;3.20;;;9.00;32.70;;;;;;5524981;25;20356;-72
2024/04/24 08:11:35;;;;;;;9.68;2.85;;;9.00;33.20;;;;;;5474471;26;20372;-70
2024/04/24 08:14:03;;;;;;;15.13;3.00;;;9.20;32.20;;;;;;5521949;25;20376;-71
2024/04/24 08:16:29;;;;;;;10.65;2.10;;;9.20;34.50;;;;;;5491687;25;20409;-71
2024/04/24 08:18:55;;;;;;;15.15;3.40;;;10.10;30.50;;;;;;5524819;25;20340;-71
2024/04/24 08:21:20;;;;;;;10.57;2.35;;;9.80;34.10;;;;;;5524913;25;20319;-71
2024/04/24 08:23:46;;;;;;;11.70;2.70;;;9.70;30.50;;;;;;5524785;25;20339;-71
2024/04/24 08:26:11;;;;;;;12.95;2.50;;;9.60;30.10;;;;;;5524849;25;20355;-71
2024/04/24 08:28:37;;;;;;;13.55;2.70;;;9.10;37.20;;;;;;5524760;25;20655;-70
2024/04/24 08:31:03;;;;;;;11.17;2.60;;;9.10;33.90;;;;;;5524511;25;20376;-72
2024/04/24 08:33:30;;;;;;;17.77;2.75;;;9.30;32.50;;;;;;5525221;25;20340;-72
2024/04/24 08:36:02;;;;;;;19.77;4.40;;;9.50;30.80;;;;;;5525385;25;20351;-74
2024/04/24 08:38:28;;;;;;;14.00;3.30;;;9.60;30.50;;;;;;5488562;26;20364;-72
2024/04/24 08:40:54;;;;;;;12.70;2.38;;;10.10;29.30;;;;;;5488750;26;20485;-72
2024/04/24 08:43:20;;;;;;;11.05;2.45;;;9.30;29.50;;;;;;5504974;26;20323;-71
2024/04/24 08:45:48;;;;;;;8.55;1.88;;;9.20;30.70;;;;;;5525630;25;20445;-70
2024/04/24 08:48:16;;;;;;;10.88;2.40;;;8.60;31.60;;;;;;5525785;25;20417;-71
2024/04/24 08:50:43;;;;;;;14.52;2.60;;;8.60;33.20;;;;;;5525203;25;20845;-71
2024/04/24 08:53:12;;;;;;;17.60;3.10;;;8.70;32.40;;;;;;5525363;25;20327;-72
2024/04/24 08:55:40;;;;;;;14.25;3.65;;;9.00;36.90;;;;;;5523790;25;20327;-71
2024/04/24 08:58:06;;;;;;;9.70;2.65;;;9.00;34.90;;;;;;5525128;25;20344;-72
2024/04/24 09:00:35;;;;;;;16.85;2.70;;;9.20;36.90;;;;;;5524823;26;20359;-71
2024/04/24 09:03:05;;;;;;;9.68;2.55;;;9.30;31.80;;;;;;5524660;25;20408;-71
2024/04/24 09:05:33;;;;;;;8.13;2.50;;;8.90;30.40;;;;;;5524498;25;20367;-72
2024/04/24 09:08:00;;;;;;;13.07;3.47;;;9.30;31.00;;;;;;5525546;25;20370;-71
2024/04/24 09:10:26;;;;;;;11.00;2.30;;;9.50;30.00;;;;;;5525668;25;20459;-71
2024/04/24 09:12:53;;;;;;;6.47;1.90;;;10.10;28.60;;;;;;5490817;26;20370;-71
2024/04/24 09:15:21;;;;;;;16.30;3.42;;;9.80;28.80;;;;;;5490957;26;20367;-71
2024/04/24 09:17:49;;;;;;;8.47;1.90;;;10.10;28.40;;;;;;5491101;26;20357;-71
2024/04/24 09:20:15;;;;;;;7.55;2.13;;;9.70;31.40;;;;;;5491121;26;20354;-72
2024/04/24 09:22:41;;;;;;;21.02;3.33;;;9.70;28.40;;;;;;5490958;26;20370;-71
2024/04/24 09:25:06;;;;;;;12.30;3.10;;;9.70;33.70;;;;;;5490825;26;20830;-71
2024/04/24 09:27:33;;;;;;;7.33;1.40;;;10.00;28.20;;;;;;5490915;26;20318;-71
2024/04/24 09:29:59;;;;;;;3.42;1.45;;;9.70;26.20;;;;;;5489946;26;20330;-71
2024/04/24 09:32:25;;;;;;;14.52;2.20;;;9.20;28.20;;;;;;5461625;26;20330;-71
2024/04/24 09:34:51;;;;;;;13.97;2.30;;;9.30;30.60;;;;;;5492917;26;20832;-71
2024/04/24 09:37:17;;;;;;;9.20;2.30;;;11.20;40.20;;;;;;5494192;26;20331;-73
2024/04/24 09:39:44;;;;;;;16.20;2.73;;;9.30;34.00;;;;;;5493472;26;20330;-71
2024/04/24 09:42:10;;;;;;;16.30;2.70;;;9.50;32.70;;;;;;5490488;26;20427;-71
2024/04/24 09:44:46;;;;;;;13.00;2.22;;;9.60;31.50;;;;;;5491778;26;20477;-71
2024/04/24 09:47:12;;;;;;;11.75;2.45;;;10.20;31.10;;;;;;5489806;26;20326;-72
2024/04/24 09:49:38;;;;;;;16.57;2.70;;;9.70;31.00;;;;;;5490834;26;20399;-72
2024/04/24 09:52:03;;;;;;;12.27;2.67;;;10.10;28.00;;;;;;5489983;26;20354;-71
2024/04/24 09:54:29;;;;;;;10.43;2.10;;;10.40;28.40;;;;;;5490537;26;20853;-71
2024/04/24 09:56:57;;;;;;;12.32;2.83;;;10.50;28.30;;;;;;5489750;26;20417;-72
2024/04/24 09:59:28;;;;;;;8.80;2.78;;;10.20;27.10;;;;;;5490834;26;20330;-71
2024/04/24 10:01:56;;;;;;;13.37;2.30;;;9.60;31.30;;;;;;5491282;26;20347;-72
2024/04/24 10:04:25;;;;;;;8.30;2.03;;;8.80;34.40;;;;;;5490404;26;20346;-72
2024/04/24 10:06:51;;;;;;;10.40;2.33;;;8.80;43.90;;;;;;5488884;26;20334;-72
2024/04/24 10:09:22;;;;;;;7.55;2.60;;;8.70;39.80;;;;;;5456437;26;20348;-71
2024/04/24 10:11:53;;;;;;;16.17;3.53;;;9.10;37.00;;;;;;5488665;26;20334;-71
2024/04/24 10:14:22;;;;;;;11.82;2.25;;;9.60;34.30;;;;;;5488611;26;20423;-72
2024/04/24 10:16:51;;;;;;;11.30;2.80;;;10.00;36.40;;;;;;5455723;26;20640;-71
2024/04/24 10:19:18;;;;;;;9.23;2.20;;;10.50;31.90;;;;;;5486436;26;20360;-71
2024/04/24 10:21:45;;;;;;;14.38;2.90;;;10.90;32.40;;;;;;5486037;26;20754;-70
2024/04/24 10:24:12;;;;;;;10.30;2.35;;;11.20;30.30;;;;;;5485836;26;20424;-71
2024/04/24 10:26:38;;;;;;;9.17;2.37;;;11.30;27.90;;;;;;5485229;26;20361;-71
2024/04/24 10:29:06;;;;;;;9.07;2.72;;;11.10;28.60;;;;;;5486043;26;20431;-71
2024/04/24 10:31:31;;;;;;;10.05;2.15;;;11.00;29.80;;;;;;5485755;26;20428;-70
2024/04/24 10:33:59;;;;;;;11.23;2.40;;;10.40;30.90;;;;;;5486056;26;20330;-72
2024/04/24 10:36:25;;;;;;;6.90;2.50;;;9.60;30.90;;;;;;5486156;26;20427;-71
2024/04/24 10:38:56;;;;;;;12.25;2.67;;;9.40;35.40;;;;;;5486301;26;20330;-71
2024/04/24 10:41:22;;;;;;;10.65;1.60;;;9.30;38.80;;;;;;5486332;26;20855;-71
2024/04/24 10:43:49;;;;;;;14.30;1.92;;;8.70;38.80;;;;;;5485754;26;20326;-71
2024/04/24 10:46:20;;;;;;;10.05;1.80;;;7.90;42.10;;;;;;5485506;26;20351;-71
2024/04/24 10:48:57;;;;;;;17.48;2.63;;;7.80;46.40;;;;;;5453936;26;20400;-73
2024/04/24 10:51:33;;;;;;;7.18;2.05;;;7.70;48.30;;;;;;5485425;26;20361;-71
2024/04/24 10:54:19;;;;;;;19.35;2.80;;;7.50;60.00;;;;;;5484581;26;20422;-71
2024/04/24 10:56:48;;;;;;;7.20;2.20;;;7.20;58.70;;;;;;5485223;26;20342;-71
2024/04/24 10:59:14;;;;;;;10.85;2.80;;;6.90;60.00;;;;;;5487803;26;20371;-71
2024/04/24 11:01:43;;;;;;;9.10;2.72;;;6.80;66.70;;;;;;5486130;26;20322;-71
2024/04/24 11:04:11;;;;;;;9.90;2.70;;;6.60;78.80;;;;;;5454127;26;20424;-71
2024/04/24 11:06:36;;;;;;;15.02;4.10;;;6.50;76.80;;;;;;5484786;26;20858;-72
2024/04/24 11:09:02;;;;;;;7.80;3.53;;;6.70;81.50;;;;;;5485518;26;20392;-72
2024/04/24 11:11:28;;;;;;;13.88;3.78;;;6.80;85.70;;;;;;5485766;26;20330;-71
2024/04/24 11:14:01;;;;;;;14.00;3.42;;;6.90;78.90;;;;;;5486131;26;20322;-72
2024/04/24 11:16:27;;;;;;;10.13;2.85;;;7.00;78.30;;;;;;5485518;26;20314;-72
2024/04/24 11:18:53;;;;;;;7.18;2.33;;;7.20;73.30;;;;;;5486587;26;20833;-70
2024/04/24 11:21:26;;;;;;;9.00;2.65;;;7.30;65.80;;;;;;5486723;26;20370;-72
2024/04/24 11:23:59;;;;;;;7.57;1.98;;;7.30;63.90;;;;;;5486487;26;20361;-71
2024/04/24 11:26:35;;;;;;;9.65;1.90;;;7.40;61.60;;;;;;5485669;26;20577;-72
2024/04/24 11:29:02;;;;;;;10.70;2.03;;;7.20;58.10;;;;;;5487367;26;20368;-72
2024/04/24 11:31:37;;;;;;;9.65;1.90;;;7.70;60.20;;;;;;5487367;26;20330;-71
2024/04/24 11:34:03;;;;;;;6.67;1.80;;;7.60;53.80;;;;;;5484950;26;20330;-70
2024/04/24 11:36:30;;;;;;;10.05;2.10;;;7.80;57.10;;;;;;5484877;26;20817;-71
2024/04/24 11:38:55;;;;;;;9.27;2.20;;;7.70;55.50;;;;;;5487011;26;20319;-71
2024/04/24 11:41:21;;;;;;;7.82;2.00;;;8.10;47.90;;;;;;5486481;26;20357;-71
2024/04/24 11:43:49;;;;;;;5.70;1.63;;;8.60;48.40;;;;;;5487321;26;20341;-72
2024/04/24 11:46:18;;;;;;;2.88;1.30;;;8.80;48.80;;;;;;5487045;26;20419;-71
2024/04/24 11:48:48;;;;;;;3.80;1.60;;;9.40;44.50;;;;;;5490344;26;21115;-70
2024/04/24 11:51:14;;;;;;;5.03;1.70;;;9.60;42.70;;;;;;5488334;26;20936;-71
2024/04/24 11:53:46;;;;;;;6.22;1.92;;;10.10;41.20;;;;;;5489349;26;20354;-73
2024/04/24 11:56:11;;;;;;;6.50;2.00;;;10.40;41.60;;;;;;5491211;26;20701;-72
2024/04/24 11:58:37;;;;;;;7.00;2.07;;;10.90;38.20;;;;;;5491883;26;20322;-72
2024/04/24 12:01:03;;;;;;;10.00;2.00;;;11.20;33.10;;;;;;5492032;26;20969;-71
2024/04/24 12:03:29;;;;;;;6.07;2.43;;;11.30;32.10;;;;;;5490233;26;20451;-72
2024/04/24 12:05:59;;;;;;;6.90;2.45;;;11.30;30.70;;;;;;5460515;26;20704;-71
2024/04/24 12:08:27;;;;;;;10.05;2.50;;;10.80;31.20;;;;;;5495008;26;20373;-71
2024/04/24 12:11:00;;;;;;;7.25;2.63;;;10.70;32.30;;;;;;5493458;26;20372;-72
2024/04/24 12:13:28;;;;;;;8.35;2.78;;;10.40;33.80;;;;;;5493013;26;20333;-72
2024/04/24 12:15:56;;;;;;;6.63;2.30;;;10.60;33.40;;;;;;5495006;26;20318;-72
2024/04/24 12:18:22;;;;;;;4.80;2.20;;;11.00;33.00;;;;;;5489724;26;20326;-70
2024/04/24 12:20:47;;;;;;;5.53;1.98;;;11.30;30.70;;;;;;5489373;26;20444;-72
2024/04/24 12:23:13;;;;;;;3.58;1.98;;;11.60;28.60;;;;;;5491060;26;20323;-71
2024/04/24 12:25:38;;;;;;;10.37;2.40;;;11.60;30.80;;;;;;5490183;26;20804;-71
2024/04/24 12:28:04;;;;;;;6.40;1.90;;;11.80;29.20;;;;;;5490306;26;20334;-71
2024/04/24 12:30:30;;;;;;;9.80;2.20;;;12.10;28.90;;;;;;5489979;26;20334;-72
2024/04/24 12:32:55;;;;;;;5.23;2.00;;;11.80;26.50;;;;;;5489608;26;20371;-71
2024/04/24 12:35:21;;;;;;;6.17;2.13;;;11.70;26.10;;;;;;5489442;26;20490;-71
2024/04/24 12:37:46;;;;;;;5.60;2.10;;;11.50;31.20;;;;;;5489657;26;20349;-71
2024/04/24 12:40:13;;;;;;;9.98;1.92;;;11.60;29.10;;;;;;5489401;26;20326;-70
2024/04/24 12:42:40;;;;;;;8.00;2.05;;;11.90;28.80;;;;;;5489550;26;20876;-71
2024/04/24 12:45:07;;;;;;;9.32;2.20;;;11.70;27.40;;;;;;5488557;26;20318;-71
2024/04/24 12:47:32;;;;;;;10.20;2.58;;;11.50;27.90;;;;;;5488721;26;20880;-71
2024/04/24 12:49:58;;;;;;;8.23;2.40;;;11.10;28.20;;;;;;5489072;26;20318;-72